createdAt,value
2022-12-17T05:30:38.783Z,96.56
2022-12-17T05:31:38.840Z,96.56
2022-12-17T05:32:38.717Z,96.14
2022-12-17T05:33:39.205Z,96.35
2022-12-17T05:34:38.741Z,95.87
2022-12-17T05:35:38.677Z,96.14
2022-12-17T05:36:38.675Z,96.39
2022-12-17T05:37:38.688Z,96.39
2022-12-17T05:38:38.688Z,96.56
2022-12-17T05:39:38.650Z,96.61
2022-12-17T05:40:38.641Z,96.50
2022-12-17T05:41:38.608Z,96.35
2022-12-17T05:42:38.606Z,96.19
2022-12-17T05:43:38.917Z,96.39
2022-12-17T05:44:38.604Z,96.29
2022-12-17T05:45:38.579Z,96.61
2022-12-17T05:46:38.646Z,96.61
2022-12-17T05:47:38.557Z,95.97
2022-12-17T05:48:38.544Z,96.39
2022-12-17T05:49:38.566Z,96.39
2022-12-17T05:50:38.533Z,96.12
2022-12-17T05:51:39.176Z,96.12
2022-12-17T05:52:38.535Z,96.19
2022-12-17T05:53:38.791Z,96.23
2022-12-17T05:54:38.517Z,96.44
2022-12-17T05:55:38.489Z,96.55
2022-12-17T05:56:38.481Z,96.61
2022-12-17T05:57:38.447Z,96.55
2022-12-17T05:58:38.440Z,97.03
2022-12-17T05:59:38.431Z,96.44
2022-12-17T06:00:38.443Z,96.33
2022-12-17T06:01:38.487Z,96.08
2022-12-17T06:02:38.568Z,96.12
2022-12-17T06:03:38.850Z,96.39
2022-12-17T06:04:38.378Z,96.44
2022-12-17T06:05:38.403Z,96.81
2022-12-17T06:06:38.400Z,96.61
2022-12-17T06:07:38.365Z,96.50
2022-12-17T06:08:38.468Z,96.81
2022-12-17T06:09:38.353Z,96.45
2022-12-17T06:10:38.311Z,96.29
2022-12-17T06:11:38.347Z,96.33
2022-12-17T06:12:38.322Z,96.39
2022-12-17T06:13:38.490Z,96.23
2022-12-17T06:14:38.299Z,96.23
2022-12-17T06:15:38.327Z,96.33
2022-12-17T06:16:38.300Z,96.33
2022-12-17T06:17:38.241Z,96.23
2022-12-17T06:18:38.250Z,96.02
2022-12-17T06:19:38.216Z,95.70
2022-12-17T06:20:38.257Z,96.02
2022-12-17T06:21:38.216Z,96.02
2022-12-17T06:22:38.197Z,96.17
2022-12-17T06:23:38.528Z,95.95
2022-12-17T06:24:41.379Z,95.11
2022-12-17T06:25:39.157Z,95.53
2022-12-17T06:26:38.147Z,96.06
2022-12-17T06:27:38.159Z,95.85
2022-12-17T06:28:38.126Z,95.89
2022-12-17T06:29:38.145Z,96.21
2022-12-17T06:30:38.107Z,96.06
2022-12-17T06:31:38.162Z,96.06
2022-12-17T06:32:38.086Z,96.11
2022-12-17T06:33:38.533Z,96.11
2022-12-17T06:34:38.089Z,96.06
2022-12-17T06:35:38.062Z,95.75
2022-12-17T06:36:38.053Z,96.27
2022-12-17T06:37:38.054Z,95.85
2022-12-17T06:38:38.020Z,95.79
2022-12-17T06:39:38.062Z,94.95
2022-12-17T06:40:38.004Z,95.05
2022-12-17T06:41:37.992Z,95.79
2022-12-17T06:42:38.000Z,95.89
2022-12-17T06:43:38.497Z,96.11
2022-12-17T06:44:37.964Z,96.00
2022-12-17T06:45:37.966Z,95.89
2022-12-17T06:46:38.017Z,96.42
2022-12-17T06:47:37.970Z,96.36
2022-12-17T06:48:37.932Z,96.11
2022-12-17T06:49:37.910Z,96.04
2022-12-17T06:50:38.027Z,96.11
2022-12-17T06:51:37.907Z,96.11
2022-12-17T06:52:37.880Z,96.73
2022-12-17T06:53:38.346Z,96.11
2022-12-17T06:54:37.860Z,96.11
2022-12-17T06:55:37.848Z,96.06
2022-12-17T06:56:37.840Z,95.47
2022-12-17T06:57:41.228Z,96.04
2022-12-17T06:58:37.838Z,95.26
2022-12-17T06:59:37.833Z,95.68
2022-12-17T07:00:37.861Z,96.15
2022-12-17T07:01:37.884Z,96.21
2022-12-17T07:02:37.914Z,95.94
2022-12-17T07:03:38.248Z,96.41
2022-12-17T07:04:37.751Z,96.19
2022-12-17T07:05:37.781Z,96.67
2022-12-17T07:06:37.749Z,96.15
2022-12-17T07:07:37.725Z,96.36
2022-12-17T07:08:37.738Z,96.47
2022-12-17T07:09:37.696Z,96.36
2022-12-17T07:10:37.682Z,96.78
2022-12-17T07:11:37.734Z,96.78
2022-12-17T07:12:37.673Z,96.67
2022-12-17T07:13:37.971Z,96.47
2022-12-17T07:14:37.653Z,96.47
2022-12-17T07:15:37.637Z,96.67
2022-12-17T07:16:37.683Z,96.67
2022-12-17T07:17:37.634Z,96.15
2022-12-17T07:18:37.608Z,96.36
2022-12-17T07:19:37.598Z,96.25
2022-12-17T07:20:37.596Z,96.36
2022-12-17T07:21:37.577Z,96.15
2022-12-17T07:22:37.617Z,95.20
2022-12-17T07:23:37.963Z,95.83
2022-12-17T07:24:37.546Z,95.35
2022-12-17T07:25:40.531Z,95.51
2022-12-17T07:26:38.550Z,95.94
2022-12-17T07:27:37.522Z,96.25
2022-12-17T07:28:37.529Z,96.15
2022-12-17T07:29:37.492Z,96.25
2022-12-17T07:30:37.499Z,95.77
2022-12-17T07:31:37.545Z,95.35
2022-12-17T07:32:37.470Z,95.98
2022-12-17T07:33:37.868Z,95.98
2022-12-17T07:34:37.469Z,95.87
2022-12-17T07:35:37.435Z,96.51
2022-12-17T07:36:37.425Z,96.61
2022-12-17T07:37:37.423Z,96.57
2022-12-17T07:38:37.416Z,96.57
2022-12-17T07:39:37.403Z,95.87
2022-12-17T07:40:37.393Z,96.45
2022-12-17T07:41:37.375Z,96.45
2022-12-17T07:42:37.378Z,96.51
2022-12-17T07:43:37.727Z,96.61
2022-12-17T07:44:37.335Z,96.51
2022-12-17T07:45:37.497Z,96.61
2022-12-17T07:46:37.313Z,96.61
2022-12-17T07:47:37.307Z,96.41
2022-12-17T07:48:37.290Z,96.72
2022-12-17T07:49:37.284Z,96.61
2022-12-17T07:50:37.279Z,96.72
2022-12-17T07:51:37.318Z,96.57
2022-12-17T07:52:37.252Z,96.36
2022-12-17T07:53:37.546Z,96.57
2022-12-17T07:54:37.249Z,96.57
2022-12-17T07:55:37.225Z,96.25
2022-12-17T07:56:37.208Z,95.73
2022-12-17T07:57:37.250Z,95.56
2022-12-17T07:58:37.232Z,94.71
2022-12-17T07:59:37.184Z,95.98
2022-12-17T08:00:37.169Z,95.56
2022-12-17T08:01:37.298Z,95.41
2022-12-17T08:02:37.356Z,95.41
2022-12-17T08:03:37.503Z,95.35
2022-12-17T08:04:37.173Z,94.93
2022-12-17T08:05:37.128Z,95.45
2022-12-17T08:06:37.106Z,95.77
2022-12-17T08:07:37.112Z,95.98
2022-12-17T08:08:37.131Z,96.36
2022-12-17T08:09:37.112Z,96.47
2022-12-17T08:10:37.083Z,96.15
2022-12-17T08:11:37.059Z,96.36
2022-12-17T08:12:37.042Z,96.25
2022-12-17T08:13:37.295Z,96.15
2022-12-17T08:14:37.053Z,96.15
2022-12-17T08:15:37.013Z,95.94
2022-12-17T08:16:37.086Z,95.62
2022-12-17T08:17:36.997Z,95.14
2022-12-17T08:18:36.980Z,95.45
2022-12-17T08:19:36.983Z,95.24
2022-12-17T08:20:36.986Z,95.50
2022-12-17T08:21:36.958Z,95.24
2022-12-17T08:22:36.942Z,96.19
2022-12-17T08:23:37.376Z,96.30
2022-12-17T08:24:36.916Z,96.19
2022-12-17T08:25:36.912Z,95.87
2022-12-17T08:26:36.944Z,96.67
2022-12-17T08:27:36.898Z,96.47
2022-12-17T08:28:52.374Z,96.15
2022-12-17T08:29:37.866Z,96.15
2022-12-17T08:30:36.942Z,96.15
2022-12-17T08:31:36.853Z,96.47
2022-12-17T08:32:36.851Z,96.47
2022-12-17T08:33:37.129Z,96.47
2022-12-17T08:34:36.815Z,95.89
2022-12-17T08:35:36.832Z,95.94
2022-12-17T08:36:36.790Z,95.37
2022-12-17T08:37:36.806Z,95.79
2022-12-17T08:38:36.779Z,95.15
2022-12-17T08:39:36.762Z,95.20
2022-12-17T08:40:36.757Z,95.09
2022-12-17T08:41:36.744Z,95.31
2022-12-17T08:42:36.767Z,95.15
2022-12-17T08:43:37.189Z,95.47
2022-12-17T08:44:36.719Z,95.26
2022-12-17T08:45:36.830Z,95.73
2022-12-17T08:46:36.698Z,95.68
2022-12-17T08:47:36.684Z,95.47
2022-12-17T08:48:36.683Z,94.84
2022-12-17T08:49:36.671Z,94.99
2022-12-17T08:50:36.662Z,95.09
2022-12-17T08:51:36.640Z,95.20
2022-12-17T08:52:36.630Z,95.31
2022-12-17T08:53:37.163Z,95.31
2022-12-17T08:54:36.618Z,95.31
2022-12-17T08:55:36.600Z,95.20
2022-12-17T08:56:36.596Z,95.20
2022-12-17T08:57:36.574Z,95.94
2022-12-17T08:58:36.581Z,95.83
2022-12-17T08:59:36.580Z,95.20
2022-12-17T09:00:36.545Z,95.62
2022-12-17T09:01:36.690Z,96.36
2022-12-17T09:02:36.635Z,96.25
2022-12-17T09:03:37.054Z,96.04
2022-12-17T09:04:36.525Z,95.94
2022-12-17T09:05:36.492Z,96.25
2022-12-17T09:06:39.264Z,96.25
2022-12-17T09:07:36.484Z,95.79
2022-12-17T09:08:36.460Z,96.11
2022-12-17T09:09:36.480Z,95.20
2022-12-17T09:10:36.449Z,96.04
2022-12-17T09:11:36.433Z,95.51
2022-12-17T09:12:36.419Z,95.35
2022-12-17T09:13:36.802Z,95.41
2022-12-17T09:14:36.419Z,95.62
2022-12-17T09:15:36.413Z,95.94
2022-12-17T09:16:36.443Z,95.94
2022-12-17T09:17:36.372Z,95.45
2022-12-17T09:18:36.366Z,94.93
2022-12-17T09:19:36.352Z,95.83
2022-12-17T09:20:36.349Z,95.83
2022-12-17T09:21:36.329Z,95.41
2022-12-17T09:22:36.315Z,95.51
2022-12-17T09:23:36.717Z,95.83
2022-12-17T09:24:36.308Z,95.41
2022-12-17T09:25:36.294Z,95.51
2022-12-17T09:26:36.302Z,96.15
2022-12-17T09:27:36.268Z,95.62
2022-12-17T09:28:36.272Z,95.24
2022-12-17T09:29:36.248Z,95.45
2022-12-17T09:30:36.388Z,95.56
2022-12-17T09:31:37.707Z,95.35
2022-12-17T09:32:36.230Z,95.35
2022-12-17T09:33:36.738Z,95.87
2022-12-17T09:34:36.188Z,95.67
2022-12-17T09:35:36.184Z,96.23
2022-12-17T09:36:36.185Z,96.23
2022-12-17T09:37:36.182Z,96.09
2022-12-17T09:38:36.152Z,95.87
2022-12-17T09:39:36.140Z,95.87
2022-12-17T09:40:36.141Z,96.23
2022-12-17T09:41:36.121Z,96.41
2022-12-17T09:42:36.115Z,95.67
2022-12-17T09:43:36.561Z,96.19
2022-12-17T09:44:36.123Z,96.19
2022-12-17T09:45:36.097Z,96.19
2022-12-17T09:46:36.223Z,96.19
2022-12-17T09:47:36.059Z,96.19
2022-12-17T09:48:36.071Z,96.25
2022-12-17T09:49:36.056Z,96.36
2022-12-17T09:50:36.043Z,95.73
2022-12-17T09:51:36.038Z,96.21
2022-12-17T09:52:36.006Z,95.47
2022-12-17T09:53:36.373Z,94.73
2022-12-17T09:54:35.988Z,94.99
2022-12-17T09:55:35.994Z,95.20
2022-12-17T09:56:35.956Z,95.37
2022-12-17T09:57:35.957Z,95.57
2022-12-17T09:58:35.977Z,94.73
2022-12-17T09:59:35.938Z,94.31
2022-12-17T10:00:35.923Z,94.73
2022-12-17T10:01:36.087Z,94.84
2022-12-17T10:02:36.221Z,94.31
2022-12-17T10:03:36.559Z,94.31
2022-12-17T10:04:35.905Z,94.53
2022-12-17T10:05:35.871Z,94.10
2022-12-17T10:06:35.857Z,93.79
2022-12-17T10:07:35.849Z,94.42
2022-12-17T10:08:35.864Z,94.42
2022-12-17T10:09:35.829Z,94.53
2022-12-17T10:10:35.824Z,94.21
2022-12-17T10:11:35.807Z,93.68
2022-12-17T10:12:35.812Z,93.68
2022-12-17T10:13:36.261Z,93.47
2022-12-17T10:14:35.772Z,93.62
2022-12-17T10:15:35.832Z,93.73
2022-12-17T10:16:35.762Z,93.73
2022-12-17T10:17:35.742Z,94.46
2022-12-17T10:18:35.757Z,94.04
2022-12-17T10:19:35.739Z,94.42
2022-12-17T10:20:35.713Z,94.15
2022-12-17T10:21:35.698Z,94.21
2022-12-17T10:22:38.924Z,94.46
2022-12-17T10:23:36.121Z,93.99
2022-12-17T10:24:35.692Z,94.35
2022-12-17T10:25:35.684Z,94.10
2022-12-17T10:26:35.650Z,94.53
2022-12-17T10:27:35.647Z,93.79
2022-12-17T10:28:35.637Z,93.37
2022-12-17T10:29:35.643Z,93.57
2022-12-17T10:30:35.608Z,93.26
2022-12-17T10:31:35.668Z,93.57
2022-12-17T10:32:35.594Z,93.79
2022-12-17T10:33:35.955Z,93.47
2022-12-17T10:34:35.589Z,93.47
2022-12-17T10:35:35.624Z,93.32
2022-12-17T10:36:35.551Z,93.85
2022-12-17T10:37:35.566Z,93.43
2022-12-17T10:38:35.532Z,93.22
2022-12-17T10:39:35.520Z,93.64
2022-12-17T10:40:35.508Z,92.69
2022-12-17T10:41:35.543Z,92.54
2022-12-17T10:42:35.502Z,92.50
2022-12-17T10:43:35.916Z,92.06
2022-12-17T10:44:35.475Z,91.00
2022-12-17T10:45:35.454Z,92.10
2022-12-17T10:46:35.530Z,92.21
2022-12-17T10:47:35.432Z,92.73
2022-12-17T10:48:35.446Z,92.73
2022-12-17T10:49:35.409Z,92.69
2022-12-17T10:50:35.426Z,92.58
2022-12-17T10:51:35.392Z,92.58
2022-12-17T10:52:35.385Z,92.38
2022-12-17T10:53:35.875Z,92.69
2022-12-17T10:54:35.376Z,92.69
2022-12-17T10:55:35.355Z,92.76
2022-12-17T10:56:35.338Z,92.54
2022-12-17T10:57:35.373Z,92.19
2022-12-17T10:58:35.341Z,91.87
2022-12-17T10:59:35.313Z,91.55
2022-12-17T11:00:35.296Z,90.86
2022-12-17T11:01:35.401Z,90.23
2022-12-17T11:02:35.549Z,90.23
2022-12-17T11:03:35.600Z,90.65
2022-12-17T11:04:35.325Z,90.23
2022-12-17T11:05:35.252Z,90.58
2022-12-17T11:06:40.511Z,90.80
2022-12-17T11:07:36.225Z,90.69
2022-12-17T11:08:35.811Z,91.00
2022-12-17T11:09:35.225Z,90.48
2022-12-17T11:10:35.207Z,91.11
2022-12-17T11:11:35.230Z,91.22
2022-12-17T11:12:35.174Z,90.90
2022-12-17T11:13:35.528Z,90.75
2022-12-17T11:14:35.155Z,90.65
2022-12-17T11:15:35.286Z,90.65
2022-12-17T11:16:35.217Z,90.55
2022-12-17T11:17:35.233Z,90.75
2022-12-17T11:18:35.110Z,90.01
2022-12-17T11:19:35.107Z,90.33
2022-12-17T11:20:35.093Z,89.87
2022-12-17T11:21:35.100Z,89.59
2022-12-17T11:22:35.089Z,89.70
2022-12-17T11:23:35.527Z,89.70
2022-12-17T11:24:35.051Z,90.33
2022-12-17T11:25:35.061Z,90.33
2022-12-17T11:26:35.032Z,90.37
2022-12-17T11:27:35.038Z,90.65
2022-12-17T11:28:35.013Z,90.44
2022-12-17T11:29:35.042Z,90.65
2022-12-17T11:30:34.984Z,90.37
2022-12-17T11:31:35.032Z,90.16
2022-12-17T11:32:34.971Z,91.11
2022-12-17T11:33:35.299Z,91.96
2022-12-17T11:34:34.946Z,91.74
2022-12-17T11:35:34.993Z,91.74
2022-12-17T11:36:38.668Z,92.06
2022-12-17T11:37:34.910Z,91.42
2022-12-17T11:38:35.361Z,91.85
2022-12-17T11:39:34.890Z,91.42
2022-12-17T11:40:34.904Z,91.53
2022-12-17T11:41:34.873Z,91.74
2022-12-17T11:42:34.867Z,91.53
2022-12-17T11:43:34.880Z,91.26
2022-12-17T11:44:34.845Z,91.53
2022-12-17T11:45:34.848Z,91.78
2022-12-17T11:46:34.988Z,91.85
2022-12-17T11:47:34.817Z,91.74
2022-12-17T11:48:35.295Z,91.74
2022-12-17T11:49:34.799Z,91.53
2022-12-17T11:50:34.818Z,91.49
2022-12-17T11:51:34.769Z,91.49
2022-12-17T11:52:34.753Z,91.91
2022-12-17T11:53:34.747Z,91.81
2022-12-17T11:54:34.773Z,91.39
2022-12-17T11:55:34.725Z,90.86
2022-12-17T11:56:34.719Z,90.86
2022-12-17T11:57:34.732Z,91.07
2022-12-17T11:58:35.191Z,90.86
2022-12-17T11:59:34.719Z,90.61
2022-12-17T12:00:34.694Z,91.17
2022-12-17T12:01:34.721Z,91.03
2022-12-17T12:02:34.677Z,90.01
2022-12-17T12:03:34.751Z,89.87
2022-12-17T12:04:34.655Z,90.29
2022-12-17T12:05:34.667Z,89.91
2022-12-17T12:06:34.634Z,90.75
2022-12-17T12:07:34.618Z,90.75
2022-12-17T12:08:35.063Z,90.55
2022-12-17T12:09:34.582Z,90.44
2022-12-17T12:10:34.585Z,90.90
2022-12-17T12:11:34.575Z,90.69
2022-12-17T12:12:34.588Z,91.11
2022-12-17T12:13:34.541Z,91.42
2022-12-17T12:14:34.532Z,91.11
2022-12-17T12:15:34.519Z,91.96
2022-12-17T12:16:38.046Z,91.85
2022-12-17T12:17:35.512Z,91.91
2022-12-17T12:18:34.859Z,91.49
2022-12-17T12:19:34.495Z,90.92
2022-12-17T12:20:34.481Z,91.77
2022-12-17T12:21:34.474Z,91.17
2022-12-17T12:22:34.467Z,91.17
2022-12-17T12:23:34.441Z,90.50
2022-12-17T12:24:34.426Z,90.19
2022-12-17T12:25:34.409Z,90.65
2022-12-17T12:26:34.423Z,90.86
2022-12-17T12:27:37.822Z,90.50
2022-12-17T12:28:35.752Z,90.55
2022-12-17T12:29:34.391Z,90.75
2022-12-17T12:30:34.363Z,90.86
2022-12-17T12:31:34.392Z,91.17
2022-12-17T12:32:34.341Z,91.28
2022-12-17T12:33:34.368Z,91.49
2022-12-17T12:34:34.342Z,91.28
2022-12-17T12:35:34.326Z,91.42
2022-12-17T12:36:34.297Z,91.91
2022-12-17T12:37:34.293Z,91.00
2022-12-17T12:38:34.565Z,91.17
2022-12-17T12:39:34.311Z,90.86
2022-12-17T12:40:34.264Z,91.81
2022-12-17T12:41:34.245Z,91.66
2022-12-17T12:42:34.329Z,91.55
2022-12-17T12:43:34.224Z,91.91
2022-12-17T12:44:34.246Z,91.97
2022-12-17T12:45:34.255Z,90.82
2022-12-17T12:46:34.237Z,90.82
2022-12-17T12:47:34.189Z,90.82
2022-12-17T12:48:34.434Z,90.19
2022-12-17T12:49:34.173Z,90.82
2022-12-17T12:50:34.156Z,90.08
2022-12-17T12:51:34.564Z,90.61
2022-12-17T12:52:34.159Z,90.29
2022-12-17T12:53:35.062Z,89.87
2022-12-17T12:54:34.167Z,90.61
2022-12-17T12:55:34.100Z,90.29
2022-12-17T12:56:34.093Z,90.75
2022-12-17T12:57:34.220Z,90.61
2022-12-17T12:58:34.303Z,90.92
2022-12-17T12:59:34.089Z,91.13
2022-12-17T13:00:34.127Z,91.45
2022-12-17T13:01:34.227Z,91.97
2022-12-17T13:02:34.212Z,91.24
2022-12-17T13:03:39.392Z,91.17
2022-12-17T13:04:35.012Z,91.24
2022-12-17T13:05:34.004Z,90.92
2022-12-17T13:06:34.023Z,91.13
2022-12-17T13:07:33.977Z,91.81
2022-12-17T13:08:34.369Z,91.45
2022-12-17T13:09:35.244Z,91.66
2022-12-17T13:10:33.952Z,91.97
2022-12-17T13:11:33.958Z,91.97
2022-12-17T13:12:33.949Z,91.13
2022-12-17T13:13:33.914Z,90.50
2022-12-17T13:14:33.940Z,90.19
2022-12-17T13:15:33.898Z,90.29
2022-12-17T13:16:33.955Z,90.44
2022-12-17T13:17:33.915Z,90.71
2022-12-17T13:18:34.128Z,90.29
2022-12-17T13:19:33.898Z,90.71
2022-12-17T13:20:33.864Z,90.61
2022-12-17T13:21:33.837Z,90.71
2022-12-17T13:22:33.827Z,90.82
2022-12-17T13:23:33.818Z,90.71
2022-12-17T13:24:33.802Z,91.13
2022-12-17T13:25:33.843Z,91.03
2022-12-17T13:26:33.779Z,90.71
2022-12-17T13:27:33.775Z,90.61
2022-12-17T13:28:33.759Z,90.36
2022-12-17T13:29:33.817Z,90.56
2022-12-17T13:30:33.782Z,89.87
2022-12-17T13:31:33.846Z,90.08
2022-12-17T13:32:33.715Z,90.46
2022-12-17T13:33:33.705Z,90.04
2022-12-17T13:34:33.699Z,89.94
2022-12-17T13:35:33.705Z,90.04
2022-12-17T13:36:33.680Z,89.62
2022-12-17T13:37:33.683Z,89.62
2022-12-17T13:38:33.829Z,89.83
2022-12-17T13:39:33.643Z,89.30
2022-12-17T13:40:33.640Z,89.51
2022-12-17T13:41:33.634Z,89.72
2022-12-17T13:42:33.617Z,89.51
2022-12-17T13:43:33.623Z,89.72
2022-12-17T13:44:33.613Z,90.04
2022-12-17T13:45:33.615Z,89.72
2022-12-17T13:46:33.590Z,89.51
2022-12-17T13:47:33.560Z,89.62
2022-12-17T13:48:33.555Z,89.83
2022-12-17T13:49:33.585Z,89.66
2022-12-17T13:50:35.047Z,89.76
2022-12-17T13:51:33.513Z,90.29
2022-12-17T13:52:33.555Z,90.61
2022-12-17T13:53:33.499Z,90.25
2022-12-17T13:54:33.490Z,90.29
2022-12-17T13:55:33.492Z,90.29
2022-12-17T13:56:33.477Z,90.56
2022-12-17T13:57:33.467Z,90.08
2022-12-17T13:58:33.469Z,90.08
2022-12-17T13:59:33.444Z,89.66
2022-12-17T14:00:33.437Z,90.19
2022-12-17T14:01:33.584Z,89.98
2022-12-17T14:02:33.561Z,90.61
2022-12-17T14:04:03.786Z,90.29
2022-12-17T14:04:34.391Z,90.50
2022-12-17T14:05:33.397Z,90.23
2022-12-17T14:06:33.383Z,90.12
2022-12-17T14:07:33.352Z,90.65
2022-12-17T14:08:33.694Z,90.23
2022-12-17T14:09:33.340Z,91.07
2022-12-17T14:10:33.343Z,90.55
2022-12-17T14:11:33.314Z,90.75
2022-12-17T14:12:33.311Z,90.65
2022-12-17T14:13:33.296Z,90.65
2022-12-17T14:14:33.288Z,90.82
2022-12-17T14:15:33.309Z,90.82
2022-12-17T14:16:33.335Z,90.82
2022-12-17T14:17:33.268Z,90.61
2022-12-17T14:18:33.276Z,89.87
2022-12-17T14:19:33.223Z,90.61
2022-12-17T14:20:33.242Z,90.25
2022-12-17T14:21:33.230Z,89.56
2022-12-17T14:22:33.200Z,89.34
2022-12-17T14:23:33.205Z,89.34
2022-12-17T14:24:33.191Z,89.17
2022-12-17T14:25:33.213Z,89.98
2022-12-17T14:26:33.175Z,89.76
2022-12-17T14:27:33.152Z,89.56
2022-12-17T14:28:33.144Z,90.08
2022-12-17T14:29:33.124Z,89.98
2022-12-17T14:30:33.132Z,89.70
2022-12-17T14:31:33.171Z,90.33
2022-12-17T14:32:33.101Z,90.44
2022-12-17T14:33:33.082Z,90.19
2022-12-17T14:34:33.111Z,90.12
2022-12-17T14:35:33.066Z,90.33
2022-12-17T14:36:33.061Z,90.01
2022-12-17T14:37:33.051Z,90.01
2022-12-17T14:38:40.714Z,90.29
2022-12-17T14:39:34.060Z,89.76
2022-12-17T14:40:33.029Z,89.81
2022-12-17T14:41:33.011Z,89.87
2022-12-17T14:42:32.997Z,90.23
2022-12-17T14:43:33.015Z,89.98
2022-12-17T14:44:33.017Z,89.87
2022-12-17T14:45:32.998Z,89.98
2022-12-17T14:46:32.975Z,90.08
2022-12-17T14:47:32.960Z,90.19
2022-12-17T14:48:32.938Z,90.01
2022-12-17T14:49:32.940Z,89.98
2022-12-17T14:50:32.923Z,90.12
2022-12-17T14:51:32.894Z,89.81
2022-12-17T14:52:32.922Z,89.87
2022-12-17T14:53:32.906Z,90.01
2022-12-17T14:54:32.878Z,90.23
2022-12-17T14:55:32.869Z,90.12
2022-12-17T14:56:32.846Z,90.65
2022-12-17T14:57:32.831Z,90.33
2022-12-17T14:58:32.846Z,90.12
2022-12-17T14:59:32.812Z,90.65
2022-12-17T15:00:32.808Z,90.44
2022-12-17T15:01:32.938Z,90.61
2022-12-17T15:02:33.007Z,90.55
2022-12-17T15:03:32.911Z,90.23
2022-12-17T15:04:32.763Z,90.29
2022-12-17T15:05:32.747Z,90.44
2022-12-17T15:06:32.769Z,90.50
2022-12-17T15:07:32.741Z,89.98
2022-12-17T15:08:32.722Z,90.23
2022-12-17T15:09:32.729Z,90.01
2022-12-17T15:10:32.702Z,90.19
2022-12-17T15:11:32.686Z,90.01
2022-12-17T15:12:32.679Z,90.33
2022-12-17T15:13:32.717Z,90.12
2022-12-17T15:14:32.680Z,90.44
2022-12-17T15:15:32.672Z,90.23
2022-12-17T15:16:32.681Z,90.37
2022-12-17T15:17:32.631Z,90.37
2022-12-17T15:18:32.618Z,90.16
2022-12-17T15:19:32.603Z,90.48
2022-12-17T15:20:32.612Z,91.00
2022-12-17T15:21:32.612Z,90.69
2022-12-17T15:22:32.596Z,90.37
2022-12-17T15:23:32.577Z,91.22
2022-12-17T15:24:32.579Z,90.90
2022-12-17T15:25:32.548Z,91.22
2022-12-17T15:26:32.541Z,91.11
2022-12-17T15:27:32.516Z,91.22
2022-12-17T15:28:32.528Z,91.00
2022-12-17T15:29:32.497Z,91.42
2022-12-17T15:30:32.550Z,91.85
2022-12-17T15:31:35.684Z,91.74
2022-12-17T15:32:32.485Z,91.53
2022-12-17T15:33:32.468Z,92.06
2022-12-17T15:34:32.452Z,91.78
2022-12-17T15:35:32.459Z,91.64
2022-12-17T15:36:32.485Z,91.74
2022-12-17T15:37:32.416Z,91.96
2022-12-17T15:38:32.427Z,91.78
2022-12-17T15:39:32.402Z,91.89
2022-12-17T15:40:32.405Z,91.26
2022-12-17T15:41:32.377Z,92.10
2022-12-17T15:42:32.390Z,91.68
2022-12-17T15:43:32.372Z,91.89
2022-12-17T15:44:32.346Z,91.99
2022-12-17T15:45:32.334Z,91.78
2022-12-17T15:46:32.391Z,91.99
2022-12-17T15:47:32.319Z,91.68
2022-12-17T15:48:32.353Z,91.99
2022-12-17T15:49:32.294Z,91.53
2022-12-17T15:50:32.296Z,91.99
2022-12-17T15:51:32.274Z,91.89
2022-12-17T15:52:32.259Z,91.89
2022-12-17T15:53:32.336Z,91.99
2022-12-17T15:54:32.256Z,92.10
2022-12-17T15:55:32.256Z,92.10
2022-12-17T15:56:32.237Z,91.47
2022-12-17T15:57:32.217Z,91.78
2022-12-17T15:58:32.214Z,91.57
2022-12-17T15:59:32.204Z,91.47
2022-12-17T16:00:32.195Z,92.10
2022-12-17T16:01:32.319Z,91.99
2022-12-17T16:02:32.421Z,92.10
2022-12-17T16:03:32.185Z,91.78
2022-12-17T16:04:32.183Z,92.21
2022-12-17T16:05:32.184Z,91.68
2022-12-17T16:06:32.116Z,91.89
2022-12-17T16:07:32.108Z,91.99
2022-12-17T16:08:32.096Z,92.21
2022-12-17T16:09:32.087Z,92.73
2022-12-17T16:10:32.105Z,92.73
2022-12-17T16:11:32.089Z,92.67
2022-12-17T16:12:32.074Z,92.73
2022-12-17T16:13:32.093Z,92.52
2022-12-17T16:14:32.060Z,92.63
2022-12-17T16:15:32.074Z,92.52
2022-12-17T16:16:32.091Z,92.67
2022-12-17T16:17:32.002Z,92.52
2022-12-17T16:18:32.005Z,92.67
2022-12-17T16:19:32.001Z,92.57
2022-12-17T16:20:31.985Z,92.63
2022-12-17T16:21:31.982Z,92.73
2022-12-17T16:22:31.981Z,92.35
2022-12-17T16:23:31.948Z,92.57
2022-12-17T16:24:31.952Z,92.84
2022-12-17T16:25:31.924Z,92.41
2022-12-17T16:26:31.928Z,92.94
2022-12-17T16:27:31.909Z,92.73
2022-12-17T16:28:31.894Z,92.57
2022-12-17T16:29:31.925Z,92.35
2022-12-17T16:30:31.875Z,93.51
2022-12-17T16:31:31.919Z,93.30
2022-12-17T16:32:36.338Z,93.62
2022-12-17T16:33:35.712Z,93.30
2022-12-17T16:34:31.854Z,93.30
2022-12-17T16:35:31.857Z,93.41
2022-12-17T16:36:31.808Z,93.41
2022-12-17T16:37:31.795Z,92.88
2022-12-17T16:38:31.787Z,92.99
2022-12-17T16:39:31.772Z,93.62
2022-12-17T16:40:31.792Z,93.26
2022-12-17T16:41:31.782Z,93.37
2022-12-17T16:42:31.760Z,93.30
2022-12-17T16:43:31.734Z,93.26
2022-12-17T16:44:31.749Z,93.26
2022-12-17T16:45:31.707Z,93.15
2022-12-17T16:46:31.777Z,93.37
2022-12-17T16:47:31.723Z,93.47
2022-12-17T16:48:31.681Z,92.99
2022-12-17T16:49:31.681Z,92.25
2022-12-17T16:50:31.705Z,92.67
2022-12-17T16:51:31.648Z,92.84
2022-12-17T16:52:31.657Z,92.99
2022-12-17T16:53:31.664Z,93.47
2022-12-17T16:54:31.612Z,93.19
2022-12-17T16:55:31.617Z,93.26
2022-12-17T16:56:35.139Z,93.47
2022-12-17T16:57:32.614Z,92.84
2022-12-17T16:58:31.591Z,92.99
2022-12-17T16:59:31.571Z,92.94
2022-12-17T17:00:31.573Z,92.84
2022-12-17T17:01:31.764Z,92.52
2022-12-17T17:02:31.811Z,92.94
2022-12-17T17:03:31.623Z,92.77
2022-12-17T17:04:31.514Z,92.35
2022-12-17T17:05:31.529Z,92.77
2022-12-17T17:06:33.742Z,93.26
2022-12-17T17:07:31.505Z,93.62
2022-12-17T17:08:31.474Z,93.15
2022-12-17T17:09:31.470Z,93.26
2022-12-17T17:10:31.478Z,93.30
2022-12-17T17:11:31.466Z,93.57
2022-12-17T17:12:31.467Z,93.05
2022-12-17T17:13:31.441Z,93.26
2022-12-17T17:14:31.473Z,93.57
2022-12-17T17:15:31.412Z,93.15
2022-12-17T17:16:31.464Z,93.26
2022-12-17T17:17:55.495Z,92.84
2022-12-17T17:18:32.366Z,92.94
2022-12-17T17:19:31.365Z,92.88
2022-12-17T17:20:31.367Z,92.84
2022-12-17T17:21:31.349Z,92.94
2022-12-17T17:22:31.379Z,92.84
2022-12-17T17:23:31.330Z,93.62
2022-12-17T17:24:31.319Z,93.47
2022-12-17T17:25:54.150Z,93.73
2022-12-17T17:26:32.283Z,93.26
2022-12-17T17:27:31.282Z,93.15
2022-12-17T17:28:31.273Z,93.37
2022-12-17T17:29:31.277Z,93.37
2022-12-17T17:30:31.257Z,93.15
2022-12-17T17:32:09.371Z,93.41
2022-12-17T17:32:32.297Z,93.26
2022-12-17T17:33:31.219Z,93.26
2022-12-17T17:34:31.230Z,92.94
2022-12-17T17:35:31.201Z,92.31
2022-12-17T17:36:31.185Z,92.88
2022-12-17T17:37:31.174Z,92.31
2022-12-17T17:38:31.182Z,92.88
2022-12-17T17:39:31.154Z,92.84
2022-12-17T17:40:31.158Z,92.73
2022-12-17T17:41:31.132Z,92.67
2022-12-17T17:42:31.144Z,92.57
2022-12-17T17:43:31.116Z,92.77
2022-12-17T17:44:31.109Z,92.88
2022-12-17T17:45:31.107Z,92.99
2022-12-17T17:46:31.145Z,93.73
2022-12-17T17:47:31.071Z,93.41
2022-12-17T17:48:31.072Z,93.51
2022-12-17T17:49:31.089Z,93.41
2022-12-17T17:50:31.044Z,93.41
2022-12-17T17:52:07.176Z,93.41
2022-12-17T17:52:32.023Z,93.62
2022-12-17T17:53:31.018Z,93.41
2022-12-17T17:54:30.992Z,93.51
2022-12-17T17:55:31.044Z,93.30
2022-12-17T17:56:30.977Z,93.09
2022-12-17T17:57:30.965Z,92.77
2022-12-17T17:58:30.972Z,92.35
2022-12-17T17:59:33.785Z,92.67
2022-12-17T18:00:30.951Z,92.67
2022-12-17T18:01:31.054Z,92.35
2022-12-17T18:02:31.137Z,92.67
2022-12-17T18:03:31.113Z,92.67
2022-12-17T18:04:30.919Z,92.99
2022-12-17T18:05:30.879Z,92.67
2022-12-17T18:06:30.903Z,92.77
2022-12-17T18:07:30.864Z,92.57
2022-12-17T18:08:30.850Z,92.46
2022-12-17T18:09:30.847Z,92.99
2022-12-17T18:10:30.849Z,92.35
2022-12-17T18:11:30.840Z,92.88
2022-12-17T18:12:30.824Z,92.67
2022-12-17T18:13:30.874Z,92.88
2022-12-17T18:14:37.491Z,92.57
2022-12-17T18:15:31.817Z,92.88
2022-12-17T18:16:30.857Z,92.67
2022-12-17T18:17:30.770Z,92.88
2022-12-17T18:18:30.786Z,92.29
2022-12-17T18:19:30.757Z,92.88
2022-12-17T18:20:30.719Z,92.57
2022-12-17T18:21:30.736Z,92.77
2022-12-17T18:22:30.734Z,92.57